Time;durP1;ratioP1;P1;durP2;ratioP2;P2;SDS_P1;SDS_P2;PMS_P1;PMS_P2;Temp;Humidity;BMP_temperature;BMP_pressure;BME280_temperature;BME280_humidity;BME280_pressure;Samples;Min_cycle;Max_cycle;Signal;HPM_P1;HPM_P2
2022/04/30 00:02:09;;;;;;;27.83;7.85;;;6.20;99.90;;;;;;4994393;28;20023;-72
2022/04/30 00:04:39;;;;;;;12.48;7.22;;;6.20;99.90;;;;;;4995079;28;20387;-72
2022/04/30 00:07:05;;;;;;;22.67;7.50;;;6.10;99.90;;;;;;4994762;28;20080;-72
2022/04/30 00:09:31;;;;;;;38.20;8.40;;;6.00;99.90;;;;;;4994690;28;20018;-72
2022/04/30 00:11:57;;;;;;;21.65;7.07;;;6.00;99.90;;;;;;4994238;28;20026;-72
2022/04/30 00:14:24;;;;;;;12.43;6.93;;;5.90;99.90;;;;;;4994695;28;20027;-72
2022/04/30 00:16:50;;;;;;;15.18;7.18;;;5.90;99.90;;;;;;4994768;28;20432;-72
2022/04/30 00:19:15;;;;;;;21.70;7.90;;;5.80;99.90;;;;;;4994590;28;20033;-72
2022/04/30 00:21:41;;;;;;;15.65;7.28;;;5.80;99.90;;;;;;4994088;28;20022;-72
2022/04/30 00:24:07;;;;;;;17.98;7.70;;;5.80;99.90;;;;;;4994521;28;20464;-72
2022/04/30 00:26:33;;;;;;;21.95;7.30;;;5.70;99.90;;;;;;4994495;28;20024;-73
2022/04/30 00:28:58;;;;;;;18.48;8.52;;;5.60;99.90;;;;;;4994599;28;20062;-73
2022/04/30 00:31:26;;;;;;;14.90;8.25;;;5.60;99.90;;;;;;4993277;28;20102;-72
2022/04/30 00:33:52;;;;;;;30.80;7.90;;;5.60;99.90;;;;;;4994384;28;20015;-72
2022/04/30 00:36:17;;;;;;;18.73;8.27;;;5.50;99.90;;;;;;4994451;28;20077;-72
2022/04/30 00:38:43;;;;;;;19.85;7.45;;;5.40;99.90;;;;;;4994451;28;20054;-72
2022/04/30 00:41:10;;;;;;;18.55;8.70;;;5.40;99.90;;;;;;4994424;28;20058;-70
2022/04/30 00:43:45;;;;;;;22.00;7.57;;;5.40;99.90;;;;;;4994461;28;20030;-72
2022/04/30 00:46:14;;;;;;;17.77;8.55;;;5.40;99.90;;;;;;4994515;28;20041;-72
2022/04/30 00:48:41;;;;;;;19.75;8.15;;;5.40;99.90;;;;;;4993844;28;20026;-72
2022/04/30 00:51:13;;;;;;;19.38;9.25;;;5.40;99.90;;;;;;4994655;28;20415;-72
2022/04/30 00:53:40;;;;;;;19.13;8.77;;;5.40;99.90;;;;;;4994368;28;20463;-72
2022/04/30 00:56:09;;;;;;;19.45;9.23;;;5.40;99.90;;;;;;4994247;28;20031;-71
2022/04/30 00:58:37;;;;;;;23.55;8.95;;;5.40;99.90;;;;;;4993889;28;20041;-72
2022/04/30 01:01:04;;;;;;;20.27;8.32;;;5.40;99.90;;;;;;4994773;28;20026;-72
2022/04/30 01:03:30;;;;;;;16.33;9.40;;;5.40;99.90;;;;;;4994268;28;20023;-72
2022/04/30 01:05:58;;;;;;;28.83;8.88;;;5.30;99.90;;;;;;4994122;28;20033;-72
2022/04/30 01:08:27;;;;;;;25.67;9.38;;;5.20;99.90;;;;;;4993722;28;20018;-72
2022/04/30 01:10:59;;;;;;;18.25;9.00;;;5.20;99.90;;;;;;4994705;28;20026;-73
2022/04/30 01:13:25;;;;;;;22.20;9.23;;;5.20;99.90;;;;;;4994306;28;20471;-72
2022/04/30 01:15:51;;;;;;;26.63;8.68;;;5.10;99.90;;;;;;4994120;28;20026;-72
2022/04/30 01:18:17;;;;;;;22.17;8.90;;;5.00;99.90;;;;;;4994388;28;20062;-72
2022/04/30 01:20:51;;;;;;;26.33;9.05;;;4.90;99.90;;;;;;4993709;28;20395;-73
2022/04/30 01:23:18;;;;;;;29.27;9.02;;;4.70;99.90;;;;;;4994166;28;20027;-72
2022/04/30 01:25:46;;;;;;;23.73;8.98;;;4.60;99.90;;;;;;4993883;28;20034;-72
2022/04/30 01:28:12;;;;;;;16.33;8.82;;;4.50;99.90;;;;;;4994074;28;20387;-72
2022/04/30 01:30:38;;;;;;;24.73;9.75;;;4.40;99.90;;;;;;4994147;28;20062;-72
2022/04/30 01:38:32;;;;;;;28.45;8.95;;;4.20;99.90;;;;;;4997825;28;20191;-72
2022/04/30 01:40:58;;;;;;;15.52;8.13;;;4.20;99.90;;;;;;4997711;28;20038;-72
2022/04/30 01:43:24;;;;;;;16.35;8.40;;;4.20;99.90;;;;;;4997419;28;20030;-72
2022/04/30 01:45:50;;;;;;;15.48;8.10;;;4.20;99.90;;;;;;4997193;28;20026;-72
2022/04/30 01:48:17;;;;;;;13.27;7.43;;;4.20;99.90;;;;;;4996825;28;20384;-72
2022/04/30 01:50:43;;;;;;;19.63;8.35;;;4.10;99.90;;;;;;5012306;28;20067;-72
2022/04/30 01:53:10;;;;;;;19.55;8.18;;;4.10;99.90;;;;;;4997573;28;20116;-72
2022/04/30 01:55:36;;;;;;;14.32;8.40;;;4.10;99.90;;;;;;4997043;28;20034;-72
2022/04/30 01:58:03;;;;;;;15.52;9.10;;;4.10;99.90;;;;;;4996711;28;20030;-72
2022/04/30 02:00:29;;;;;;;22.00;8.35;;;4.10;99.90;;;;;;5012259;28;20375;-72
2022/04/30 02:03:00;;;;;;;26.77;9.80;;;4.10;99.90;;;;;;4997664;28;20033;-72
2022/04/30 02:05:26;;;;;;;32.92;10.88;;;4.20;99.90;;;;;;4997901;28;20038;-72
2022/04/30 02:08:05;;;;;;;23.02;10.00;;;4.20;99.90;;;;;;4998398;28;20483;-72
2022/04/30 02:10:33;;;;;;;29.15;10.70;;;4.40;99.90;;;;;;4996691;28;20026;-72
2022/04/30 02:12:59;;;;;;;28.45;11.15;;;4.50;99.90;;;;;;4997008;28;20049;-72
2022/04/30 02:15:26;;;;;;;30.17;10.15;;;4.60;99.90;;;;;;4996688;28;20019;-72
2022/04/30 02:17:52;;;;;;;32.45;12.90;;;4.70;99.90;;;;;;4996433;28;20037;-72
2022/04/30 02:20:22;;;;;;;23.88;10.38;;;4.80;99.90;;;;;;4996676;28;20038;-73
2022/04/30 02:22:49;;;;;;;21.27;11.40;;;4.70;99.90;;;;;;4996552;28;20105;-73
2022/04/30 02:25:16;;;;;;;24.00;11.82;;;4.70;99.90;;;;;;4996502;28;20105;-72
2022/04/30 02:27:47;;;;;;;25.73;11.23;;;4.70;99.90;;;;;;4996385;28;20027;-72
2022/04/30 02:30:15;;;;;;;32.45;11.55;;;4.70;99.90;;;;;;4996150;28;20026;-72
2022/04/30 02:32:46;;;;;;;28.30;11.40;;;4.70;99.90;;;;;;4996672;28;20105;-72
2022/04/30 02:35:16;;;;;;;23.65;9.90;;;4.60;99.90;;;;;;4996343;28;20038;-72
2022/04/30 02:37:45;;;;;;;21.23;10.45;;;4.50;99.90;;;;;;4996305;28;20487;-72
2022/04/30 02:40:18;;;;;;;21.52;10.52;;;4.40;99.90;;;;;;4995830;28;20031;-72
2022/04/30 02:42:44;;;;;;;23.90;10.77;;;4.40;99.90;;;;;;4996597;28;20023;-72
2022/04/30 02:45:11;;;;;;;19.70;10.85;;;4.30;99.90;;;;;;4996118;28;20049;-72
2022/04/30 02:47:39;;;;;;;22.92;10.48;;;4.30;99.90;;;;;;4995017;28;20037;-72
2022/04/30 02:50:09;;;;;;;19.35;9.55;;;4.10;99.90;;;;;;4995565;28;20479;-72
2022/04/30 02:52:35;;;;;;;22.88;10.02;;;4.10;99.90;;;;;;4995965;28;20034;-72
2022/04/30 02:55:01;;;;;;;16.27;8.85;;;4.00;99.90;;;;;;4996116;28;20034;-72
2022/04/30 02:59:53;;;;;;;18.55;9.63;;;4.00;99.90;;;;;;4995961;28;20041;-72
2022/04/30 03:00:34;;;;;;;18.95;9.70;;;3.90;99.90;;;;;;4995323;28;20037;-72
2022/04/30 03:03:00;;;;;;;30.65;9.60;;;3.90;99.90;;;;;;4996030;28;20022;-72
2022/04/30 03:05:26;;;;;;;18.25;9.40;;;3.90;99.90;;;;;;4996000;28;20065;-72
2022/04/30 03:07:53;;;;;;;15.02;8.75;;;3.90;99.90;;;;;;4995767;28;20048;-73
2022/04/30 03:10:19;;;;;;;15.90;10.23;;;3.90;99.90;;;;;;4995677;28;20046;-73
2022/04/30 03:12:45;;;;;;;15.57;9.63;;;3.90;99.90;;;;;;4995234;28;20101;-72
2022/04/30 03:15:11;;;;;;;15.77;8.77;;;3.80;99.90;;;;;;4995912;28;20062;-72
2022/04/30 03:23:06;;;;;;;;;;;3.70;99.90;;;;;;4995458;28;20456;-72
2022/04/30 03:25:31;;;;;;;16.25;9.38;;;3.70;99.90;;;;;;4995510;28;20004;-72
2022/04/30 03:27:57;;;;;;;15.20;9.65;;;3.60;99.90;;;;;;4995405;28;20022;-73
2022/04/30 03:30:25;;;;;;;16.83;8.80;;;3.60;99.90;;;;;;4995372;28;20107;-72
2022/04/30 03:32:52;;;;;;;19.33;9.48;;;3.50;99.90;;;;;;4995311;28;20103;-72
2022/04/30 03:35:17;;;;;;;17.45;8.88;;;3.50;99.90;;;;;;5009825;28;20029;-72
2022/04/30 03:37:43;;;;;;;15.43;9.68;;;3.50;99.90;;;;;;5010281;28;20030;-72
2022/04/30 03:40:10;;;;;;;16.55;10.10;;;3.50;99.90;;;;;;4995294;28;20026;-73
2022/04/30 03:42:36;;;;;;;22.13;10.65;;;3.50;99.90;;;;;;4995473;28;20034;-73
2022/04/30 03:45:03;;;;;;;17.63;9.27;;;3.50;99.90;;;;;;4995055;28;20030;-73
2022/04/30 03:47:28;;;;;;;15.40;10.18;;;3.50;99.90;;;;;;4995245;28;20027;-72
2022/04/30 03:49:55;;;;;;;17.92;10.50;;;3.50;99.90;;;;;;4994621;28;20022;-72
2022/04/30 03:52:21;;;;;;;19.23;9.63;;;3.60;99.90;;;;;;4995046;28;20018;-72
2022/04/30 03:54:47;;;;;;;43.00;20.73;;;3.60;99.90;;;;;;4995019;28;20030;-73
2022/04/30 03:57:13;;;;;;;154.30;81.25;;;3.60;99.90;;;;;;4995042;28;20113;-72
2022/04/30 03:59:38;;;;;;;126.38;70.25;;;3.70;99.90;;;;;;4994141;28;20037;-72
2022/04/30 04:02:04;;;;;;;88.13;46.65;;;3.70;99.90;;;;;;4994677;28;20089;-72
2022/04/30 04:04:30;;;;;;;83.28;45.45;;;3.80;99.90;;;;;;4995382;28;20050;-72
2022/04/30 04:06:57;;;;;;;52.30;25.33;;;3.80;99.90;;;;;;4994812;28;20014;-72
2022/04/30 04:09:22;;;;;;;62.10;28.00;;;3.80;99.90;;;;;;4994758;28;20026;-72
2022/04/30 04:11:48;;;;;;;57.70;31.50;;;3.90;99.90;;;;;;4994415;28;20033;-71
2022/04/30 04:19:41;;;;;;;38.80;16.95;;;4.00;99.90;;;;;;4995048;28;20077;-72
2022/04/30 04:22:07;;;;;;;37.25;17.35;;;4.10;99.90;;;;;;4994422;28;20014;-72
2022/04/30 04:27:18;;;;;;;79.07;27.77;;;4.30;99.90;;;;;;4994726;28;20077;-72
2022/04/30 04:29:44;;;;;;;36.95;17.23;;;4.40;99.90;;;;;;4995373;28;20105;-72
2022/04/30 04:32:10;;;;;;;40.75;16.35;;;4.50;99.90;;;;;;4996104;28;20042;-72
2022/04/30 04:34:35;;;;;;;31.45;14.45;;;4.50;99.90;;;;;;4996036;28;20054;-73
2022/04/30 04:37:01;;;;;;;34.28;14.77;;;4.60;99.90;;;;;;4994134;28;20466;-73
2022/04/30 04:39:26;;;;;;;31.85;14.43;;;4.60;99.90;;;;;;4995119;28;20077;-73
2022/04/30 04:41:52;;;;;;;36.85;14.43;;;4.60;99.90;;;;;;4995228;28;20053;-73
2022/04/30 04:44:18;;;;;;;40.08;14.43;;;4.60;99.90;;;;;;4993872;28;20501;-72
2022/04/30 04:46:43;;;;;;;32.28;13.32;;;4.60;99.90;;;;;;4994597;28;20023;-72
2022/04/30 04:49:10;;;;;;;26.38;13.38;;;4.70;99.90;;;;;;4994638;28;20033;-72
2022/04/30 04:51:35;;;;;;;27.65;13.35;;;4.70;99.90;;;;;;4994364;28;20023;-73
2022/04/30 04:54:02;;;;;;;29.13;13.95;;;4.70;99.90;;;;;;4994314;28;20395;-72
2022/04/30 04:56:28;;;;;;;26.45;13.27;;;4.70;99.90;;;;;;4994655;28;20504;-73
2022/04/30 04:58:53;;;;;;;33.63;14.10;;;4.70;99.90;;;;;;4993930;28;20467;-73
2022/04/30 05:01:19;;;;;;;27.10;14.07;;;4.70;99.90;;;;;;4994683;28;20027;-73
2022/04/30 05:03:44;;;;;;;28.85;14.70;;;4.80;99.90;;;;;;4994846;28;20038;-73
2022/04/30 05:06:10;;;;;;;35.05;16.88;;;4.80;99.90;;;;;;4993995;28;20062;-73
2022/04/30 05:08:36;;;;;;;52.38;22.20;;;4.90;99.90;;;;;;4994104;28;20026;-72
2022/04/30 05:11:02;;;;;;;115.60;32.67;;;5.00;99.90;;;;;;4995735;28;20015;-72
2022/04/30 05:13:27;;;;;;;109.60;31.60;;;5.10;99.90;;;;;;4997917;28;20502;-72
2022/04/30 05:15:53;;;;;;;81.80;25.20;;;5.30;99.90;;;;;;4997863;28;20058;-72
2022/04/30 05:18:19;;;;;;;94.95;29.55;;;5.30;99.90;;;;;;4998290;28;20030;-72
2022/04/30 05:20:46;;;;;;;58.83;24.30;;;5.40;99.90;;;;;;4997766;28;20037;-72
2022/04/30 05:23:11;;;;;;;64.80;24.23;;;5.50;99.90;;;;;;4997304;28;20026;-72
2022/04/30 05:25:40;;;;;;;45.00;21.05;;;5.50;99.90;;;;;;4997607;28;20093;-72
2022/04/30 05:28:07;;;;;;;124.10;51.90;;;5.60;99.90;;;;;;4997971;28;20072;-72
2022/04/30 05:30:32;;;;;;;116.22;62.20;;;5.70;99.90;;;;;;4997939;28;20025;-73
2022/04/30 05:32:58;;;;;;;164.48;50.65;;;5.80;99.90;;;;;;4997721;28;20022;-73
2022/04/30 05:35:24;;;;;;;144.05;43.42;;;5.80;99.90;;;;;;4997509;28;20374;-72
2022/04/30 05:37:50;;;;;;;137.65;48.70;;;5.80;99.90;;;;;;4997544;28;20054;-73
2022/04/30 05:40:15;;;;;;;87.57;36.20;;;5.80;99.90;;;;;;4997581;28;20072;-73
2022/04/30 05:42:41;;;;;;;75.03;30.25;;;5.80;99.90;;;;;;4998102;28;20050;-72
2022/04/30 05:45:07;;;;;;;49.83;18.27;;;5.90;99.90;;;;;;4995366;28;20026;-73
2022/04/30 05:47:32;;;;;;;42.58;17.27;;;6.00;99.90;;;;;;4997772;28;20026;-73
2022/04/30 05:49:58;;;;;;;37.70;17.17;;;5.90;99.90;;;;;;4997220;28;20026;-71
2022/04/30 05:52:24;;;;;;;41.17;16.83;;;5.90;99.90;;;;;;4997577;28;20031;-72
2022/04/30 05:54:49;;;;;;;55.47;21.17;;;6.00;99.90;;;;;;4997066;28;20059;-71
2022/04/30 05:57:15;;;;;;;35.60;16.92;;;6.00;99.90;;;;;;4996396;28;20080;-71
2022/04/30 05:59:40;;;;;;;42.45;16.48;;;6.10;99.90;;;;;;4997268;28;20027;-71
2022/04/30 06:02:06;;;;;;;34.90;16.98;;;6.20;99.90;;;;;;4996900;28;20100;-72
2022/04/30 06:04:32;;;;;;;145.32;36.60;;;6.30;99.90;;;;;;4997066;28;20033;-72
2022/04/30 06:06:58;;;;;;;62.03;23.45;;;6.40;99.90;;;;;;4996908;28;20027;-72
2022/04/30 06:09:25;;;;;;;68.57;25.27;;;6.50;99.90;;;;;;4996280;28;20100;-71
2022/04/30 06:11:51;;;;;;;52.00;20.48;;;6.60;99.90;;;;;;4996901;28;20023;-71
2022/04/30 06:14:16;;;;;;;34.50;17.60;;;6.70;99.90;;;;;;4996653;28;20435;-71
2022/04/30 06:16:42;;;;;;;86.35;30.00;;;6.80;99.90;;;;;;4996668;28;20054;-71
2022/04/30 06:19:08;;;;;;;57.28;21.08;;;6.80;99.90;;;;;;4996131;28;20030;-71
2022/04/30 06:21:33;;;;;;;53.15;19.30;;;6.90;99.90;;;;;;4995890;28;20022;-71
2022/04/30 06:23:59;;;;;;;29.85;15.45;;;7.00;99.90;;;;;;4996655;28;20519;-72
2022/04/30 06:26:24;;;;;;;32.17;15.43;;;7.10;99.90;;;;;;4996141;28;20049;-71
2022/04/30 06:28:50;;;;;;;34.95;18.33;;;7.20;99.90;;;;;;4995008;28;20018;-72
2022/04/30 06:31:15;;;;;;;22.45;14.45;;;7.30;99.90;;;;;;4996631;28;20386;-72
2022/04/30 06:33:41;;;;;;;29.83;14.75;;;7.30;99.90;;;;;;4996643;28;20030;-72
2022/04/30 06:36:07;;;;;;;36.55;14.80;;;7.40;99.90;;;;;;4995882;28;20540;-72
2022/04/30 06:38:33;;;;;;;31.27;15.45;;;7.40;99.90;;;;;;4996534;28;20481;-71
2022/04/30 06:40:59;;;;;;;22.95;14.75;;;7.50;99.90;;;;;;4996723;28;20030;-72
2022/04/30 06:43:24;;;;;;;25.55;14.10;;;7.60;99.90;;;;;;4996594;28;20088;-72
2022/04/30 06:45:50;;;;;;;25.83;13.95;;;7.60;99.90;;;;;;4996056;28;20042;-72
2022/04/30 06:48:15;;;;;;;26.90;13.73;;;7.70;99.90;;;;;;4995778;28;20053;-72
2022/04/30 06:50:41;;;;;;;21.85;13.27;;;7.70;99.90;;;;;;4996814;28;20022;-72
2022/04/30 06:58:44;;;;;;;30.80;14.63;;;8.00;99.90;;;;;;4997279;28;20052;-72
2022/04/30 07:01:37;;;;;;;25.52;13.60;;;8.10;99.90;;;;;;4997431;28;20077;-72
2022/04/30 07:04:05;;;;;;;23.70;11.97;;;8.30;99.90;;;;;;4996658;28;20568;-72
2022/04/30 07:06:32;;;;;;;23.38;12.52;;;8.40;99.90;;;;;;4995659;28;20030;-72
2022/04/30 07:08:58;;;;;;;20.05;12.60;;;8.50;99.90;;;;;;4995676;28;20634;-71
2022/04/30 07:11:24;;;;;;;24.83;11.93;;;8.50;99.90;;;;;;4995787;28;20065;-71
2022/04/30 07:13:50;;;;;;;28.88;11.10;;;8.60;99.90;;;;;;4995687;28;20069;-72
2022/04/30 07:16:15;;;;;;;26.58;12.85;;;8.60;99.90;;;;;;4995742;28;20032;-72
2022/04/30 07:18:41;;;;;;;23.60;11.48;;;8.70;99.90;;;;;;4995662;28;20376;-72
2022/04/30 07:21:06;;;;;;;22.60;11.23;;;8.70;99.90;;;;;;4995177;28;20550;-72
2022/04/30 07:23:32;;;;;;;25.80;10.32;;;8.80;99.90;;;;;;4995923;28;20499;-72
2022/04/30 07:25:58;;;;;;;16.17;10.93;;;8.90;99.90;;;;;;4995551;28;20046;-72
2022/04/30 07:28:23;;;;;;;20.73;10.45;;;8.90;99.90;;;;;;4995480;28;20026;-72
2022/04/30 07:30:52;;;;;;;22.30;9.27;;;9.00;99.90;;;;;;4995885;28;20026;-71
2022/04/30 07:33:18;;;;;;;18.73;8.13;;;9.20;99.90;;;;;;4994782;28;20079;-72
2022/04/30 07:35:43;;;;;;;21.05;8.25;;;9.40;99.90;;;;;;4994632;28;20034;-71
2022/04/30 07:38:09;;;;;;;15.95;8.15;;;9.40;99.90;;;;;;4995642;28;20034;-72
2022/04/30 07:40:38;;;;;;;9.90;7.70;;;9.50;99.90;;;;;;4995884;28;20035;-71
2022/04/30 07:43:04;;;;;;;8.20;6.15;;;9.70;99.90;;;;;;4995138;28;20022;-72
2022/04/30 07:45:29;;;;;;;10.07;6.65;;;9.60;99.90;;;;;;4995267;28;20038;-72
2022/04/30 07:47:55;;;;;;;16.45;7.68;;;9.70;99.90;;;;;;4995039;28;20034;-72
2022/04/30 07:50:22;;;;;;;23.08;7.10;;;9.80;99.90;;;;;;4994563;28;20023;-72
2022/04/30 07:52:48;;;;;;;13.10;7.15;;;9.90;99.90;;;;;;4995260;28;20073;-71
2022/04/30 07:55:14;;;;;;;12.65;7.25;;;10.00;99.90;;;;;;4994953;28;20026;-72
2022/04/30 07:57:40;;;;;;;14.65;6.68;;;10.00;99.90;;;;;;4994762;28;20030;-72
2022/04/30 08:00:06;;;;;;;16.85;7.38;;;10.10;99.90;;;;;;4995008;28;20088;-72
2022/04/30 08:02:32;;;;;;;12.48;6.65;;;10.30;99.90;;;;;;4994457;28;20559;-72
2022/04/30 08:04:58;;;;;;;12.38;6.45;;;10.40;99.90;;;;;;4994696;28;20116;-72
2022/04/30 08:07:24;;;;;;;14.77;5.72;;;10.50;99.90;;;;;;4994637;28;20038;-72
2022/04/30 08:09:49;;;;;;;23.58;7.05;;;10.60;99.90;;;;;;4994868;28;20430;-71
2022/04/30 08:12:18;;;;;;;11.35;5.78;;;10.50;99.90;;;;;;4994173;28;20077;-72
2022/04/30 08:14:44;;;;;;;11.05;6.22;;;10.40;99.90;;;;;;4994946;28;20029;-71
2022/04/30 08:17:10;;;;;;;13.40;5.57;;;10.30;99.90;;;;;;4994735;28;20022;-72
2022/04/30 08:19:35;;;;;;;14.93;6.30;;;10.30;99.90;;;;;;4994699;28;20022;-72
2022/04/30 08:22:01;;;;;;;9.75;5.80;;;10.40;99.90;;;;;;4994589;28;20113;-72
2022/04/30 08:24:26;;;;;;;10.18;6.03;;;10.50;99.90;;;;;;4994556;28;20043;-72
2022/04/30 08:26:52;;;;;;;11.20;5.80;;;10.50;99.90;;;;;;4994682;28;20036;-71
2022/04/30 08:29:17;;;;;;;11.32;4.82;;;10.60;99.90;;;;;;4994632;28;20101;-71
2022/04/30 08:31:43;;;;;;;13.77;6.15;;;10.70;99.90;;;;;;4994538;28;20475;-71
2022/04/30 08:34:09;;;;;;;11.88;5.85;;;10.70;99.90;;;;;;4994489;28;20020;-72
2022/04/30 08:36:34;;;;;;;8.90;5.68;;;10.80;99.90;;;;;;4993839;28;20042;-71
2022/04/30 08:39:00;;;;;;;14.52;6.22;;;10.70;99.90;;;;;;4994436;28;20033;-71
2022/04/30 08:41:25;;;;;;;12.35;6.13;;;10.80;99.90;;;;;;4994462;28;20064;-72
2022/04/30 08:43:51;;;;;;;21.33;6.53;;;11.10;99.90;;;;;;4993904;28;20027;-72
2022/04/30 08:46:20;;;;;;;12.18;6.88;;;11.20;99.90;;;;;;4998749;28;20030;-72
2022/04/30 08:48:46;;;;;;;11.65;6.45;;;11.40;99.90;;;;;;4998375;28;20073;-72
2022/04/30 08:51:12;;;;;;;11.73;6.22;;;11.30;99.90;;;;;;4997950;28;20368;-71
2022/04/30 08:53:38;;;;;;;19.67;6.53;;;11.50;99.90;;;;;;4998063;28;20026;-72
2022/04/30 08:56:10;;;;;;;10.98;6.28;;;11.70;99.90;;;;;;4998506;28;20479;-72
2022/04/30 08:58:35;;;;;;;11.90;5.57;;;11.70;99.90;;;;;;4998767;28;20041;-72
2022/04/30 09:01:04;;;;;;;12.32;6.05;;;12.20;99.90;;;;;;4998032;28;20026;-71
2022/04/30 09:03:34;;;;;;;7.97;5.28;;;12.40;99.90;;;;;;4997916;28;20038;-70
2022/04/30 09:06:00;;;;;;;14.30;5.70;;;12.00;99.90;;;;;;4997329;28;20026;-71
2022/04/30 09:08:26;;;;;;;8.05;5.85;;;12.00;99.90;;;;;;4998215;28;20105;-70
2022/04/30 09:10:51;;;;;;;9.95;5.53;;;12.30;99.90;;;;;;4998101;28;20026;-71
2022/04/30 09:13:18;;;;;;;17.27;6.53;;;12.30;99.90;;;;;;4998269;28;20484;-71
2022/04/30 09:15:46;;;;;;;13.20;6.50;;;12.20;99.90;;;;;;4997678;28;20022;-70
2022/04/30 09:18:17;;;;;;;11.40;6.35;;;12.30;99.90;;;;;;4998030;28;20026;-71
2022/04/30 09:20:47;;;;;;;9.85;6.30;;;12.40;99.90;;;;;;4999001;28;20023;-70
2022/04/30 09:23:43;;;;;;;20.70;5.97;;;12.50;99.90;;;;;;4998923;28;20491;-71
2022/04/30 09:26:09;;;;;;;15.93;6.60;;;12.20;99.90;;;;;;4993526;28;20494;-71
2022/04/30 09:28:36;;;;;;;13.85;5.47;;;12.00;99.90;;;;;;4997514;28;20114;-70
2022/04/30 09:31:07;;;;;;;10.13;5.90;;;12.00;99.90;;;;;;4997192;28;20031;-70
2022/04/30 09:33:34;;;;;;;14.10;6.47;;;12.30;99.90;;;;;;4997675;28;20026;-70
2022/04/30 09:38:52;;;;;;;7.85;5.95;;;12.60;99.90;;;;;;4997850;28;20057;-71
2022/04/30 09:41:26;;;;;;;11.75;6.22;;;12.80;99.90;;;;;;4997285;28;20416;-70
2022/04/30 09:44:04;;;;;;;17.33;5.93;;;12.60;99.90;;;;;;4996839;28;20612;-71
2022/04/30 09:46:32;;;;;;;14.95;6.28;;;12.70;99.90;;;;;;4996010;28;20037;-71
2022/04/30 09:54:29;;;;;;;14.70;6.45;;;12.90;99.90;;;;;;4997449;28;20034;-72
2022/04/30 09:56:58;;;;;;;18.95;6.50;;;13.00;99.90;;;;;;4995998;28;20032;-71
2022/04/30 09:59:25;;;;;;;11.60;6.38;;;12.90;99.90;;;;;;4996913;28;20022;-70
2022/04/30 10:01:53;;;;;;;13.63;6.53;;;12.50;99.90;;;;;;4996916;28;20146;-71
2022/04/30 10:04:19;;;;;;;14.20;6.90;;;12.50;99.90;;;;;;4996672;28;20030;-71
2022/04/30 10:06:48;;;;;;;11.25;6.03;;;12.50;99.90;;;;;;4996158;28;20022;-71
2022/04/30 10:09:21;;;;;;;12.07;6.03;;;12.20;99.90;;;;;;4997245;28;20022;-71
2022/04/30 10:11:54;;;;;;;14.20;6.65;;;12.20;99.90;;;;;;4997006;28;20478;-71
2022/04/30 10:14:43;;;;;;;7.13;5.63;;;12.50;99.90;;;;;;4996658;28;20022;-71
2022/04/30 10:17:13;;;;;;;15.60;7.20;;;12.80;99.90;;;;;;4996140;28;20027;-71
2022/04/30 10:19:40;;;;;;;14.43;5.95;;;13.00;99.90;;;;;;4996524;28;20513;-71
2022/04/30 10:22:16;;;;;;;15.38;6.95;;;13.40;99.90;;;;;;4997042;28;20037;-71
2022/04/30 10:24:48;;;;;;;17.15;7.07;;;13.90;99.90;;;;;;4996602;28;20023;-71
2022/04/30 10:27:15;;;;;;;16.40;6.53;;;14.00;99.90;;;;;;4996074;28;20088;-71
2022/04/30 10:29:54;;;;;;;16.90;6.95;;;14.00;99.90;;;;;;4996889;28;20344;-72
2022/04/30 10:32:34;;;;;;;20.15;7.13;;;14.00;99.90;;;;;;4996366;28;20072;-72
2022/04/30 10:35:01;;;;;;;10.75;4.90;;;13.90;99.90;;;;;;4996427;28;20076;-71
2022/04/30 10:37:32;;;;;;;13.93;6.38;;;13.80;99.90;;;;;;4995540;28;20076;-71
2022/04/30 10:40:08;;;;;;;11.98;5.50;;;14.40;99.90;;;;;;4996107;28;20030;-71
2022/04/30 10:42:42;;;;;;;13.40;6.85;;;14.50;99.90;;;;;;4995066;28;20430;-71
2022/04/30 10:45:11;;;;;;;;;;;13.80;99.90;;;;;;4996219;28;20545;-71
2022/04/30 10:47:48;;;;;;;9.90;5.35;;;13.90;99.90;;;;;;4995924;28;19938;-71
2022/04/30 10:50:13;;;;;;;10.70;5.93;;;14.30;99.90;;;;;;4996199;28;20101;-71
2022/04/30 10:52:41;;;;;;;11.43;5.85;;;14.20;99.90;;;;;;4995389;28;20126;-71
2022/04/30 10:55:07;;;;;;;12.48;6.53;;;14.40;99.90;;;;;;4996068;28;20101;-71
2022/04/30 10:57:42;;;;;;;18.45;6.15;;;14.60;99.90;;;;;;4995653;28;20096;-71
2022/04/30 11:00:08;;;;;;;14.48;7.15;;;14.80;99.90;;;;;;4995623;28;20139;-71
2022/04/30 11:02:34;;;;;;;14.25;7.00;;;15.20;99.90;;;;;;4995712;28;20046;-71
2022/04/30 11:05:01;;;;;;;19.88;8.13;;;15.40;99.90;;;;;;4995088;28;20497;-71
2022/04/30 11:07:28;;;;;;;12.00;7.18;;;15.40;99.90;;;;;;4994729;28;20057;-71
2022/04/30 11:09:54;;;;;;;15.68;7.35;;;15.40;99.90;;;;;;4995294;28;20022;-71
2022/04/30 11:12:20;;;;;;;10.85;6.05;;;15.50;99.90;;;;;;4995463;28;20034;-71
2022/04/30 11:14:46;;;;;;;13.27;6.25;;;15.50;99.90;;;;;;4995922;28;20033;-71
2022/04/30 11:17:11;;;;;;;9.75;5.82;;;15.60;99.90;;;;;;4995089;28;20015;-71
2022/04/30 11:19:41;;;;;;;11.88;5.28;;;15.30;99.90;;;;;;4995563;28;20026;-71
2022/04/30 11:22:09;;;;;;;7.28;4.85;;;15.00;99.90;;;;;;4995368;28;20026;-71
2022/04/30 11:24:37;;;;;;;15.02;5.13;;;15.30;99.90;;;;;;4994843;28;20033;-71
2022/04/30 11:27:05;;;;;;;10.68;5.10;;;15.40;99.90;;;;;;4995403;28;20065;-71
2022/04/30 11:29:32;;;;;;;13.35;4.82;;;15.50;99.90;;;;;;4995461;28;20022;-71
2022/04/30 11:31:59;;;;;;;5.80;4.00;;;15.30;99.90;;;;;;4995576;28;20122;-71
2022/04/30 11:34:25;;;;;;;11.30;4.95;;;14.90;99.90;;;;;;4994687;28;20018;-70
2022/04/30 11:36:53;;;;;;;11.70;4.45;;;15.00;99.90;;;;;;4994954;28;20042;-71
2022/04/30 11:39:20;;;;;;;9.05;4.35;;;15.10;99.90;;;;;;4995702;28;20448;-71
2022/04/30 11:41:48;;;;;;;10.50;4.38;;;15.10;99.90;;;;;;4993339;28;20027;-71
2022/04/30 11:44:16;;;;;;;13.93;4.10;;;15.00;99.90;;;;;;4995161;28;20027;-72
2022/04/30 11:46:43;;;;;;;10.30;3.55;;;15.30;99.90;;;;;;4996083;28;20034;-71
2022/04/30 11:49:17;;;;;;;11.48;3.92;;;15.60;99.90;;;;;;4996435;28;20023;-71
2022/04/30 11:51:44;;;;;;;10.32;3.20;;;15.70;99.90;;;;;;4993727;28;20046;-71
2022/04/30 11:54:12;;;;;;;7.25;2.53;;;16.10;99.90;;;;;;4994444;28;20023;-71
2022/04/30 11:56:39;;;;;;;10.57;3.08;;;16.20;99.90;;;;;;4994698;28;20046;-71
2022/04/30 11:59:05;;;;;;;7.70;2.03;;;16.40;99.90;;;;;;4994914;28;20080;-71
2022/04/30 12:01:33;;;;;;;10.63;3.58;;;16.70;99.90;;;;;;4994968;28;20395;-71
2022/04/30 12:04:09;;;;;;;6.68;2.60;;;16.30;99.90;;;;;;4995053;28;20487;-71
2022/04/30 12:06:36;;;;;;;10.63;2.80;;;16.20;99.90;;;;;;4994812;28;20042;-71
2022/04/30 12:09:15;;;;;;;10.27;2.30;;;16.30;99.90;;;;;;4994161;28;20029;-71
2022/04/30 12:11:45;;;;;;;7.30;2.25;;;16.80;99.90;;;;;;4994995;28;20022;-71
2022/04/30 12:14:11;;;;;;;7.18;2.20;;;17.10;99.90;;;;;;4995158;28;20073;-71
2022/04/30 12:16:42;;;;;;;5.55;1.90;;;16.90;99.90;;;;;;4994053;28;20030;-71
2022/04/30 12:25:13;;;;;;;12.20;2.33;;;18.20;99.90;;;;;;4994067;28;20049;-71
2022/04/30 12:27:40;;;;;;;7.03;2.72;;;18.50;99.90;;;;;;4994342;28;20058;-71
2022/04/30 12:30:14;;;;;;;12.23;1.98;;;18.10;99.90;;;;;;4994623;28;20019;-71
2022/04/30 12:33:00;;;;;;;12.00;2.75;;;18.20;99.90;;;;;;4993216;28;20391;-71
2022/04/30 12:35:30;;;;;;;8.20;1.88;;;18.00;99.90;;;;;;4993766;28;20023;-71
2022/04/30 12:38:13;;;;;;;9.85;2.28;;;17.60;99.90;;;;;;4994487;28;20054;-71
2022/04/30 12:40:43;;;;;;;8.13;1.85;;;17.60;99.90;;;;;;4994450;28;20073;-71
2022/04/30 12:43:09;;;;;;;9.80;1.75;;;17.50;99.90;;;;;;4994864;28;20375;-71
2022/04/30 12:45:37;;;;;;;9.15;2.10;;;17.90;99.90;;;;;;4994402;28;20073;-70
2022/04/30 12:48:04;;;;;;;29.40;3.72;;;18.10;99.90;;;;;;4993796;28;20030;-71
2022/04/30 12:50:32;;;;;;;10.57;2.03;;;18.30;99.90;;;;;;4994487;28;20027;-71
2022/04/30 12:52:58;;;;;;;7.47;1.58;;;18.40;99.90;;;;;;4994117;28;20102;-71
2022/04/30 12:55:24;;;;;;;10.80;2.83;;;18.60;99.90;;;;;;4991477;28;20041;-71
2022/04/30 12:57:50;;;;;;;4.75;1.80;;;18.60;99.90;;;;;;4994105;28;20387;-71
2022/04/30 13:00:16;;;;;;;10.35;1.73;;;18.40;99.90;;;;;;4994078;28;20038;-71
2022/04/30 13:02:43;;;;;;;39.20;3.72;;;18.40;99.90;;;;;;4994159;28;20038;-71
2022/04/30 13:05:10;;;;;;;10.98;2.17;;;18.60;99.90;;;;;;4993778;28;20025;-71
2022/04/30 13:07:41;;;;;;;11.45;2.30;;;18.80;99.90;;;;;;4993444;28;20077;-71
2022/04/30 13:15:36;;;;;;;7.53;1.45;;;18.40;99.90;;;;;;4993900;28;20427;-70
2022/04/30 13:18:02;;;;;;;6.65;1.70;;;17.10;99.90;;;;;;4993890;28;20038;-70
2022/04/30 13:20:28;;;;;;;12.02;2.20;;;16.30;99.90;;;;;;4993354;28;20026;-70
2022/04/30 13:22:56;;;;;;;13.35;2.42;;;16.00;99.90;;;;;;4993564;28;20031;-70
2022/04/30 13:25:23;;;;;;;7.88;1.98;;;15.70;99.90;;;;;;4994345;28;20030;-71
2022/04/30 13:27:49;;;;;;;13.73;2.28;;;15.10;99.90;;;;;;4993772;28;20024;-71